Time;durP1;ratioP1;P1;durP2;ratioP2;P2;SDS_P1;SDS_P2;PMS_P1;PMS_P2;Temp;Humidity;BMP_temperature;BMP_pressure;BME280_temperature;BME280_humidity;BME280_pressure;Samples;Min_cycle;Max_cycle;Signal;HPM_P1;HPM_P2
2022/01/07 00:02:06;;;;;;;23.85;7.90;;;3.60;99.90;;;;;;5096058;28;20047;-45
2022/01/07 00:04:35;;;;;;;17.15;7.47;;;3.60;99.90;;;;;;5092150;28;20032;-44
2022/01/07 00:07:04;;;;;;;22.75;9.52;;;3.60;99.90;;;;;;5096988;28;20132;-45
2022/01/07 00:09:29;;;;;;;21.10;10.02;;;3.60;99.90;;;;;;5091528;28;20020;-43
2022/01/07 00:11:55;;;;;;;22.08;8.85;;;3.50;99.90;;;;;;5095141;28;20032;-44
2022/01/07 00:14:21;;;;;;;22.92;9.23;;;3.50;99.90;;;;;;5098458;28;20407;-44
2022/01/07 00:16:48;;;;;;;21.25;8.30;;;3.50;99.90;;;;;;5098515;28;20039;-43
2022/01/07 00:19:15;;;;;;;20.88;7.63;;;3.50;99.90;;;;;;5099924;28;20024;-44
2022/01/07 00:21:41;;;;;;;17.48;6.85;;;3.60;99.90;;;;;;5095631;28;20472;-44
2022/01/07 00:24:07;;;;;;;20.38;6.57;;;3.60;99.90;;;;;;5102208;28;20051;-44
2022/01/07 00:26:33;;;;;;;15.65;7.20;;;3.60;99.90;;;;;;5097239;28;20032;-43
2022/01/07 00:28:58;;;;;;;20.25;6.90;;;3.60;99.90;;;;;;5101432;28;20024;-44
2022/01/07 00:31:24;;;;;;;18.65;6.72;;;3.60;99.90;;;;;;5101774;28;20104;-44
2022/01/07 00:33:49;;;;;;;21.90;7.18;;;3.60;99.90;;;;;;5098036;28;20024;-47
2022/01/07 00:36:15;;;;;;;15.80;6.80;;;3.60;99.90;;;;;;5094520;28;20115;-45
2022/01/07 00:38:41;;;;;;;20.10;6.78;;;3.60;99.90;;;;;;5100427;28;20025;-42
2022/01/07 00:41:07;;;;;;;17.55;6.65;;;3.50;99.90;;;;;;5101911;28;20044;-47
2022/01/07 00:43:33;;;;;;;16.70;6.45;;;3.50;99.90;;;;;;5100076;28;20057;-45
2022/01/07 00:45:59;;;;;;;17.58;7.18;;;3.50;99.90;;;;;;5098584;28;20024;-46
2022/01/07 00:48:25;;;;;;;16.70;6.32;;;3.40;99.90;;;;;;5098066;28;20036;-46
2022/01/07 00:50:51;;;;;;;16.27;6.75;;;3.40;99.90;;;;;;5099842;28;20030;-44
2022/01/07 00:53:17;;;;;;;19.08;7.15;;;3.30;99.90;;;;;;5099806;28;20035;-44
2022/01/07 00:55:43;;;;;;;18.15;8.00;;;3.30;99.90;;;;;;5095479;28;20468;-44
2022/01/07 00:58:08;;;;;;;21.85;7.40;;;3.30;99.90;;;;;;5095428;28;20024;-44
2022/01/07 01:00:34;;;;;;;17.50;7.03;;;3.20;99.90;;;;;;5097395;28;20039;-44
2022/01/07 01:03:00;;;;;;;20.15;7.32;;;3.20;99.90;;;;;;5097311;28;20036;-44
2022/01/07 01:05:27;;;;;;;20.42;6.65;;;3.10;99.90;;;;;;5100624;28;20028;-43
2022/01/07 01:07:53;;;;;;;17.85;6.35;;;3.10;99.90;;;;;;5094355;28;20044;-44
2022/01/07 01:10:21;;;;;;;17.27;6.43;;;3.10;99.90;;;;;;5094506;28;20059;-44
2022/01/07 01:12:48;;;;;;;17.50;7.07;;;3.10;99.90;;;;;;5097213;28;20024;-44
2022/01/07 01:15:16;;;;;;;16.23;6.50;;;3.00;99.90;;;;;;5101551;28;20052;-44
2022/01/07 01:17:42;;;;;;;12.75;6.03;;;3.00;99.90;;;;;;5101773;28;20055;-43
2022/01/07 01:20:10;;;;;;;18.15;8.13;;;3.00;99.90;;;;;;5097453;28;20032;-45
2022/01/07 01:22:36;;;;;;;19.52;7.70;;;3.00;99.90;;;;;;5096024;28;20144;-43
2022/01/07 01:25:04;;;;;;;19.35;7.75;;;2.90;99.90;;;;;;5095164;28;20073;-43
2022/01/07 01:27:30;;;;;;;17.25;7.85;;;2.90;99.90;;;;;;5095563;28;20031;-44
2022/01/07 01:29:55;;;;;;;22.25;7.72;;;2.90;99.90;;;;;;5096744;28;20422;-46
2022/01/07 01:32:23;;;;;;;17.70;7.32;;;2.80;99.90;;;;;;5095102;28;20032;-44
2022/01/07 01:34:49;;;;;;;20.17;7.28;;;2.90;99.90;;;;;;5100619;28;20039;-44
2022/01/07 01:37:15;;;;;;;21.13;7.80;;;2.80;99.90;;;;;;5098223;28;20136;-44
2022/01/07 01:39:40;;;;;;;18.55;7.72;;;2.80;99.90;;;;;;5097779;28;20038;-48
2022/01/07 01:42:06;;;;;;;20.20;6.78;;;2.80;99.90;;;;;;5095565;28;20043;-46
2022/01/07 01:44:32;;;;;;;19.25;7.28;;;2.70;99.90;;;;;;5097361;28;20032;-48
2022/01/07 01:46:58;;;;;;;18.45;8.18;;;2.70;99.90;;;;;;5096324;28;20032;-46
2022/01/07 01:49:24;;;;;;;20.40;8.20;;;2.70;99.90;;;;;;5095945;28;20143;-47
2022/01/07 01:51:50;;;;;;;19.23;7.97;;;2.60;99.90;;;;;;5097364;28;20476;-49
2022/01/07 01:54:16;;;;;;;20.23;8.27;;;2.70;99.90;;;;;;5113625;28;20032;-48
2022/01/07 01:56:42;;;;;;;18.60;8.90;;;2.60;99.90;;;;;;5099172;28;20048;-47
2022/01/07 01:59:09;;;;;;;20.45;8.18;;;2.60;99.90;;;;;;5095463;28;20040;-45
2022/01/07 02:01:35;;;;;;;21.75;8.13;;;2.60;99.90;;;;;;5098319;28;20079;-44
2022/01/07 02:04:01;;;;;;;19.52;8.73;;;2.60;99.90;;;;;;5095284;28;20040;-47
2022/01/07 02:06:27;;;;;;;21.38;8.50;;;2.60;99.90;;;;;;5097694;28;20039;-43
2022/01/07 02:08:53;;;;;;;21.00;8.77;;;2.60;99.90;;;;;;5095040;28;20028;-44
2022/01/07 02:11:19;;;;;;;21.25;8.55;;;2.60;99.90;;;;;;5100133;28;20024;-44
2022/01/07 02:13:48;;;;;;;17.15;8.25;;;2.60;99.90;;;;;;5097984;28;20031;-44
2022/01/07 02:16:16;;;;;;;20.90;8.90;;;2.60;99.90;;;;;;5098608;28;20056;-46
2022/01/07 02:18:45;;;;;;;21.10;8.90;;;2.60;99.90;;;;;;5098225;28;20039;-49
2022/01/07 02:21:11;;;;;;;22.10;9.95;;;2.60;99.90;;;;;;5097642;28;20723;-49
2022/01/07 02:23:37;;;;;;;20.67;9.60;;;2.60;99.90;;;;;;5095805;28;20028;-44
2022/01/07 02:26:02;;;;;;;21.23;9.23;;;2.60;99.90;;;;;;5096931;28;20016;-45
2022/01/07 02:28:29;;;;;;;21.73;9.32;;;2.60;99.90;;;;;;5098318;28;20031;-46
2022/01/07 02:30:55;;;;;;;18.02;9.25;;;2.60;99.90;;;;;;5096340;28;20020;-43
2022/01/07 02:33:20;;;;;;;20.95;10.00;;;2.60;99.90;;;;;;5095280;28;20031;-43
2022/01/07 02:35:46;;;;;;;21.95;9.32;;;2.60;99.90;;;;;;5100293;28;20028;-43
2022/01/07 02:38:15;;;;;;;21.52;8.68;;;2.60;99.90;;;;;;5098525;28;20076;-44
2022/01/07 02:40:41;;;;;;;19.35;9.45;;;2.60;99.90;;;;;;5099191;28;20039;-43
2022/01/07 02:43:08;;;;;;;20.88;9.85;;;2.60;99.90;;;;;;5097416;28;20102;-43
2022/01/07 02:45:34;;;;;;;19.05;9.93;;;2.60;99.90;;;;;;5096415;28;20495;-45
2022/01/07 02:48:02;;;;;;;19.75;9.88;;;2.60;99.90;;;;;;5098940;28;20055;-42
2022/01/07 02:50:37;;;;;;;20.48;9.48;;;2.60;99.90;;;;;;5094499;28;20056;-43
2022/01/07 02:53:07;;;;;;;25.17;10.57;;;2.60;99.90;;;;;;5098429;28;20031;-43
2022/01/07 02:55:34;;;;;;;17.75;9.88;;;2.60;99.90;;;;;;5096803;28;20448;-43
2022/01/07 02:58:02;;;;;;;19.90;10.30;;;2.60;99.90;;;;;;5099432;28;20103;-43
2022/01/07 03:00:28;;;;;;;19.20;10.18;;;2.60;99.90;;;;;;5095470;28;20036;-43
2022/01/07 03:02:55;;;;;;;17.15;9.90;;;2.60;99.90;;;;;;5098540;28;20055;-42
2022/01/07 03:05:22;;;;;;;24.08;11.13;;;2.60;99.90;;;;;;5096711;28;20024;-43
2022/01/07 03:11:09;;;;;;;19.50;9.65;;;2.60;99.90;;;;;;5074067;22;20548;-86
2022/01/07 03:13:35;;;;;;;19.02;9.48;;;2.60;99.90;;;;;;4977384;28;20082;-85
2022/01/07 03:16:01;;;;;;;20.08;10.80;;;2.60;99.90;;;;;;4996696;28;20053;-86
2022/01/07 03:18:26;;;;;;;21.05;10.52;;;2.60;99.90;;;;;;4991117;28;20056;-86
2022/01/07 03:20:52;;;;;;;19.77;9.77;;;2.60;99.90;;;;;;4980276;28;20179;-84
2022/01/07 03:23:18;;;;;;;17.60;10.07;;;2.70;99.90;;;;;;4978820;28;20026;-86
2022/01/07 03:25:47;;;;;;;21.63;10.77;;;2.70;99.90;;;;;;4991149;28;20414;-84
2022/01/07 03:28:13;;;;;;;19.23;10.52;;;2.70;99.90;;;;;;4998291;28;20076;-85
2022/01/07 03:30:39;;;;;;;18.73;10.00;;;2.70;99.90;;;;;;4956715;28;20054;-85
2022/01/07 03:33:06;;;;;;;24.15;11.35;;;2.70;99.90;;;;;;5011448;28;20094;-84
2022/01/07 03:35:31;;;;;;;18.63;10.93;;;2.70;99.90;;;;;;4968834;28;20093;-86
2022/01/07 03:37:57;;;;;;;20.48;9.95;;;2.70;99.90;;;;;;4994193;28;20817;-86
2022/01/07 03:40:23;;;;;;;19.05;10.55;;;2.80;99.90;;;;;;4975960;28;20026;-86
2022/01/07 03:42:50;;;;;;;20.55;10.80;;;2.70;99.90;;;;;;5000960;28;20043;-86
2022/01/07 03:45:16;;;;;;;18.75;10.68;;;2.80;99.90;;;;;;5000587;28;20478;-86
2022/01/07 03:47:42;;;;;;;21.13;10.85;;;2.80;99.90;;;;;;4976358;28;20098;-85
2022/01/07 03:50:11;;;;;;;21.38;10.85;;;2.80;99.90;;;;;;4997498;28;20026;-85
2022/01/07 03:52:38;;;;;;;19.73;10.00;;;2.80;99.90;;;;;;5015609;28;20033;-86
2022/01/07 03:55:06;;;;;;;20.67;10.20;;;2.80;99.90;;;;;;4997283;28;20370;-85
2022/01/07 03:57:32;;;;;;;20.77;10.55;;;2.80;99.90;;;;;;4992787;28;20075;-86
2022/01/07 03:59:58;;;;;;;17.55;10.00;;;2.80;99.90;;;;;;5000981;28;20018;-85
2022/01/07 04:02:24;;;;;;;19.02;10.10;;;2.90;99.90;;;;;;4989076;28;20045;-85
2022/01/07 04:04:49;;;;;;;17.88;9.18;;;2.90;99.90;;;;;;4991056;28;20034;-85
2022/01/07 04:07:15;;;;;;;17.92;10.43;;;2.90;99.90;;;;;;4979969;28;20053;-86
2022/01/07 04:09:41;;;;;;;21.75;11.10;;;2.90;99.90;;;;;;5014868;28;20030;-86
2022/01/07 04:12:07;;;;;;;18.75;10.85;;;2.90;99.90;;;;;;4980820;28;20054;-86
2022/01/07 04:14:33;;;;;;;18.73;10.30;;;2.80;99.90;;;;;;4997113;28;20550;-86
2022/01/07 04:16:59;;;;;;;20.73;10.27;;;2.80;99.90;;;;;;5014901;28;20053;-85
2022/01/07 04:19:25;;;;;;;20.58;10.20;;;2.80;99.90;;;;;;5002672;28;20036;-85
2022/01/07 04:21:51;;;;;;;16.63;10.40;;;2.80;99.90;;;;;;4996358;28;20038;-86
2022/01/07 04:24:18;;;;;;;17.48;9.93;;;2.80;99.90;;;;;;4991408;28;20037;-85
2022/01/07 04:26:44;;;;;;;17.67;9.73;;;2.80;99.90;;;;;;5005364;28;20502;-85
2022/01/07 04:29:10;;;;;;;18.80;10.15;;;2.80;99.90;;;;;;5005526;28;20029;-86
2022/01/07 04:31:36;;;;;;;18.15;9.52;;;2.80;99.90;;;;;;5011645;28;20030;-86
2022/01/07 04:34:02;;;;;;;19.75;10.43;;;2.90;99.90;;;;;;4997203;28;20030;-86
2022/01/07 04:36:28;;;;;;;23.33;10.73;;;2.90;99.90;;;;;;5012030;28;20029;-87
2022/01/07 04:38:54;;;;;;;18.27;9.82;;;2.80;99.90;;;;;;5000446;28;20409;-87
2022/01/07 04:41:20;;;;;;;17.80;10.00;;;2.90;99.90;;;;;;5003870;28;20034;-87
2022/01/07 04:43:45;;;;;;;18.13;10.38;;;2.90;99.90;;;;;;5002396;28;20487;-86
2022/01/07 04:46:11;;;;;;;21.50;10.13;;;2.90;99.90;;;;;;4988366;28;20042;-83
2022/01/07 04:48:37;;;;;;;18.98;9.43;;;2.90;99.90;;;;;;4995824;28;20062;-85
2022/01/07 04:51:03;;;;;;;20.50;10.82;;;2.90;99.90;;;;;;4981239;28;20049;-86
2022/01/07 04:53:28;;;;;;;17.65;9.23;;;2.90;99.90;;;;;;4997163;28;20018;-85
2022/01/07 04:55:56;;;;;;;16.88;9.75;;;2.90;99.90;;;;;;4998124;28;22172;-84
2022/01/07 04:58:22;;;;;;;15.93;9.80;;;2.90;99.90;;;;;;5001603;28;20046;-84
2022/01/07 05:00:48;;;;;;;15.70;9.38;;;2.90;99.90;;;;;;4997005;28;20037;-85
2022/01/07 05:03:14;;;;;;;17.67;9.35;;;2.90;99.90;;;;;;4998569;28;20026;-93
2022/01/07 05:05:41;;;;;;;17.33;9.57;;;2.90;99.90;;;;;;5000147;28;20057;-86
2022/01/07 05:08:08;;;;;;;19.77;8.88;;;2.90;99.90;;;;;;5005249;28;20037;-92
2022/01/07 05:10:34;;;;;;;13.93;8.02;;;2.90;99.90;;;;;;4984750;28;20066;-89
2022/01/07 05:13:00;;;;;;;14.60;9.30;;;2.90;99.90;;;;;;5016157;28;20034;-92
2022/01/07 05:15:25;;;;;;;16.90;9.57;;;2.90;99.90;;;;;;5003430;28;20056;-89
2022/01/07 05:17:52;;;;;;;18.25;8.50;;;2.90;99.90;;;;;;4994537;28;20030;-85
2022/01/07 05:20:19;;;;;;;14.82;8.90;;;2.90;99.90;;;;;;4999199;28;20022;-85
2022/01/07 05:22:45;;;;;;;15.75;8.38;;;2.90;99.90;;;;;;5018568;28;20093;-84
2022/01/07 05:25:13;;;;;;;15.75;8.57;;;2.90;99.90;;;;;;5012878;28;20030;-83
2022/01/07 05:27:39;;;;;;;16.35;9.55;;;2.90;99.90;;;;;;5017141;28;20033;-84
2022/01/07 05:30:08;;;;;;;15.25;9.43;;;2.80;99.90;;;;;;4992430;28;20027;-88
2022/01/07 05:32:33;;;;;;;19.55;11.70;;;2.90;99.90;;;;;;5018595;28;20509;-80
2022/01/07 05:34:59;;;;;;;15.52;9.00;;;2.90;99.90;;;;;;5018708;28;20034;-80
2022/01/07 05:37:25;;;;;;;16.48;8.77;;;2.80;99.90;;;;;;5021992;28;20465;-83
2022/01/07 05:39:50;;;;;;;13.30;8.88;;;2.90;99.90;;;;;;4991206;28;20040;-82
2022/01/07 05:42:16;;;;;;;15.60;8.68;;;2.90;99.90;;;;;;5018439;28;20041;-81
2022/01/07 05:44:42;;;;;;;17.80;9.25;;;2.90;99.90;;;;;;5016690;28;20172;-83
2022/01/07 05:47:08;;;;;;;14.45;8.73;;;2.90;99.90;;;;;;4998075;28;20022;-84
2022/01/07 05:49:33;;;;;;;15.18;8.40;;;2.90;99.90;;;;;;5016980;28;20051;-83
2022/01/07 05:51:59;;;;;;;17.95;8.85;;;2.80;99.90;;;;;;5003362;28;20030;-83
2022/01/07 05:54:25;;;;;;;15.52;8.85;;;2.90;99.90;;;;;;5002198;28;20074;-82
2022/01/07 05:56:50;;;;;;;12.98;8.38;;;2.90;99.90;;;;;;5014468;28;20018;-84
2022/01/07 05:59:16;;;;;;;13.25;8.18;;;2.90;99.90;;;;;;5008865;28;20064;-83
2022/01/07 06:01:42;;;;;;;15.15;8.45;;;2.90;99.90;;;;;;5009715;28;20066;-83
2022/01/07 06:04:07;;;;;;;15.05;7.95;;;2.90;99.90;;;;;;4994478;28;20061;-83
2022/01/07 06:06:33;;;;;;;17.15;9.65;;;3.00;99.90;;;;;;4981710;28;20048;-83
2022/01/07 06:08:59;;;;;;;12.40;7.43;;;2.90;99.90;;;;;;4998054;28;20030;-83
2022/01/07 06:11:24;;;;;;;14.60;7.80;;;3.00;99.90;;;;;;5015995;28;20049;-83
2022/01/07 06:13:50;;;;;;;17.38;8.43;;;3.00;99.90;;;;;;4991398;28;20034;-82
2022/01/07 06:16:16;;;;;;;12.82;8.27;;;3.00;99.90;;;;;;5012067;28;20029;-83
2022/01/07 06:19:02;;;;;;;14.70;7.97;;;3.00;99.90;;;;;;4999733;28;20034;-81
2022/01/07 06:21:28;;;;;;;14.35;7.65;;;3.00;99.90;;;;;;4994845;28;20069;-83
2022/01/07 06:23:54;;;;;;;14.15;7.78;;;3.10;99.90;;;;;;5009214;28;20037;-84
2022/01/07 06:26:20;;;;;;;14.00;8.00;;;3.10;99.90;;;;;;5023798;28;20029;-83
2022/01/07 06:28:46;;;;;;;14.27;8.20;;;3.10;99.90;;;;;;5024932;28;20104;-83
2022/01/07 06:31:12;;;;;;;12.27;8.23;;;3.10;99.90;;;;;;5017190;28;20029;-83
2022/01/07 06:33:37;;;;;;;13.93;8.23;;;3.10;99.90;;;;;;5010885;28;20081;-84
2022/01/07 06:36:04;;;;;;;14.38;8.35;;;3.10;99.90;;;;;;5008688;28;20034;-89
2022/01/07 06:38:29;;;;;;;14.63;8.35;;;3.20;99.90;;;;;;5005075;28;20022;-89
2022/01/07 06:40:55;;;;;;;14.00;8.50;;;3.10;99.90;;;;;;5017807;28;20091;-85
2022/01/07 06:43:20;;;;;;;13.40;8.10;;;3.10;99.90;;;;;;5018383;28;20048;-85
2022/01/07 06:45:46;;;;;;;13.80;8.55;;;3.10;99.90;;;;;;4990725;28;20030;-85
2022/01/07 06:48:12;;;;;;;15.57;8.77;;;3.20;99.90;;;;;;4996178;28;20067;-85
2022/01/07 06:50:38;;;;;;;15.90;8.80;;;3.20;99.90;;;;;;4978521;28;20033;-84
2022/01/07 06:53:03;;;;;;;14.45;7.60;;;3.20;99.90;;;;;;5011782;28;20094;-82
2022/01/07 06:55:29;;;;;;;15.88;9.18;;;3.20;99.90;;;;;;5004760;28;20023;-82
2022/01/07 06:57:55;;;;;;;15.25;8.70;;;3.20;99.90;;;;;;5010225;28;20026;-82
2022/01/07 07:00:21;;;;;;;13.38;8.73;;;3.20;99.90;;;;;;5013698;28;20447;-82
2022/01/07 07:02:47;;;;;;;13.57;8.43;;;3.20;99.90;;;;;;5003090;28;20069;-82
2022/01/07 07:05:12;;;;;;;15.52;8.63;;;3.20;99.90;;;;;;5018402;28;20049;-83
2022/01/07 07:07:38;;;;;;;16.90;9.70;;;3.20;99.90;;;;;;4983546;28;20351;-83
2022/01/07 07:10:04;;;;;;;14.10;9.23;;;3.20;99.90;;;;;;5019694;28;20026;-81
2022/01/07 07:12:30;;;;;;;17.63;9.55;;;3.20;99.90;;;;;;5011026;28;20439;-82
2022/01/07 07:14:55;;;;;;;16.45;9.15;;;3.20;99.90;;;;;;4997801;28;20100;-82
2022/01/07 07:17:23;;;;;;;17.08;9.60;;;3.20;99.90;;;;;;4986683;28;20027;-82
2022/01/07 07:19:49;;;;;;;17.02;9.82;;;3.20;99.90;;;;;;5013889;28;20026;-83
2022/01/07 07:22:14;;;;;;;14.70;9.73;;;3.30;99.90;;;;;;5018107;28;20705;-84
2022/01/07 07:24:40;;;;;;;18.92;11.30;;;3.30;99.90;;;;;;4993174;28;20109;-84
2022/01/07 07:27:06;;;;;;;17.25;11.45;;;3.30;99.90;;;;;;5014625;28;20026;-85
2022/01/07 07:29:31;;;;;;;18.27;10.48;;;3.30;99.90;;;;;;4999419;28;20042;-82
2022/01/07 07:31:59;;;;;;;18.92;11.15;;;3.30;99.90;;;;;;5012054;28;20023;-79
2022/01/07 07:37:07;;;;;;;18.50;11.43;;;3.40;99.90;;;;;;5010594;28;20064;-81
2022/01/07 07:39:33;;;;;;;21.65;11.95;;;3.40;99.90;;;;;;4994354;28;20042;-82
2022/01/07 07:41:59;;;;;;;21.05;11.55;;;3.40;99.90;;;;;;5009505;28;20030;-79
2022/01/07 07:44:24;;;;;;;23.80;12.57;;;3.40;99.90;;;;;;4996864;28;20026;-83
2022/01/07 07:46:51;;;;;;;20.83;12.48;;;3.40;99.90;;;;;;4995745;28;20030;-79
2022/01/07 07:49:18;;;;;;;19.92;12.95;;;3.50;99.90;;;;;;5000653;28;20037;-82
2022/01/07 07:51:46;;;;;;;21.85;13.77;;;3.50;99.90;;;;;;4991998;28;20037;-83
2022/01/07 07:54:11;;;;;;;21.42;13.65;;;3.60;99.90;;;;;;4989813;28;20031;-83
2022/01/07 07:56:37;;;;;;;21.95;14.02;;;3.60;99.90;;;;;;4997718;28;20034;-82
2022/01/07 07:59:03;;;;;;;25.90;14.20;;;3.60;99.90;;;;;;5016399;28;20022;-83
2022/01/07 08:01:29;;;;;;;22.55;13.52;;;3.70;99.90;;;;;;5018745;28;20053;-82
2022/01/07 08:03:55;;;;;;;24.60;14.20;;;3.70;99.90;;;;;;5020519;28;20017;-84
2022/01/07 08:06:20;;;;;;;24.35;13.48;;;3.70;99.90;;;;;;5001505;28;20042;-83
2022/01/07 08:08:47;;;;;;;23.42;13.82;;;3.70;99.90;;;;;;5010429;28;20026;-83
2022/01/07 08:11:13;;;;;;;28.58;16.00;;;3.70;99.90;;;;;;5000891;28;20077;-83
2022/01/07 08:16:24;;;;;;;28.17;15.75;;;3.80;99.90;;;;;;4992694;28;20050;-84
2022/01/07 08:18:55;;;;;;;29.42;14.85;;;3.80;99.90;;;;;;4991590;28;20026;-82
2022/01/07 08:21:24;;;;;;;25.27;16.00;;;3.80;99.90;;;;;;5001050;28;20038;-83
2022/01/07 08:23:54;;;;;;;29.27;15.82;;;3.90;99.90;;;;;;5000950;28;20373;-82
2022/01/07 08:26:21;;;;;;;27.63;16.10;;;3.90;99.90;;;;;;5003636;28;20034;-83
2022/01/07 08:28:51;;;;;;;28.58;16.23;;;4.00;99.90;;;;;;5003689;28;20030;-83
2022/01/07 08:36:29;;;;;;;33.53;16.98;;;4.10;99.90;;;;;;5003730;28;20037;-83
2022/01/07 08:38:56;;;;;;;32.05;17.67;;;4.20;99.90;;;;;;5001493;28;20026;-84
2022/01/07 08:41:25;;;;;;;30.83;17.25;;;4.20;99.90;;;;;;5001529;28;20065;-83
2022/01/07 08:43:52;;;;;;;28.30;16.27;;;4.30;99.90;;;;;;5002523;28;20030;-82
2022/01/07 08:46:17;;;;;;;29.23;17.08;;;4.30;99.90;;;;;;5003510;28;20058;-84
2022/01/07 08:48:44;;;;;;;33.10;17.92;;;4.30;99.90;;;;;;5003138;28;20046;-84
2022/01/07 08:51:10;;;;;;;33.40;17.55;;;4.40;99.90;;;;;;5000939;28;20105;-84
2022/01/07 08:53:36;;;;;;;30.85;16.80;;;4.40;99.90;;;;;;5000701;28;20121;-83
2022/01/07 08:56:02;;;;;;;29.30;17.27;;;4.50;99.90;;;;;;5017864;28;20022;-84
2022/01/07 08:58:28;;;;;;;33.13;17.52;;;4.60;99.90;;;;;;5017052;28;20977;-84
2022/01/07 09:00:55;;;;;;;30.83;16.75;;;4.60;99.90;;;;;;4999826;28;20533;-83
2022/01/07 09:03:24;;;;;;;35.42;18.13;;;4.70;99.90;;;;;;5002671;28;20106;-83
2022/01/07 09:05:51;;;;;;;32.97;17.25;;;4.70;99.90;;;;;;5002776;28;20155;-84
2022/01/07 09:08:17;;;;;;;28.25;17.35;;;4.70;99.90;;;;;;5002922;28;20038;-83
2022/01/07 09:10:43;;;;;;;35.83;18.00;;;4.70;99.90;;;;;;5003287;28;20100;-82
2022/01/07 09:13:10;;;;;;;29.67;17.73;;;4.60;99.90;;;;;;5002464;28;20058;-83
2022/01/07 09:15:37;;;;;;;30.75;19.17;;;4.70;99.90;;;;;;5002770;28;20184;-82
2022/01/07 09:18:09;;;;;;;28.08;17.85;;;4.80;99.90;;;;;;5001055;28;20030;-82
2022/01/07 09:20:37;;;;;;;32.22;19.08;;;4.70;99.90;;;;;;5002174;28;20026;-83
2022/01/07 09:23:03;;;;;;;28.25;18.52;;;4.70;99.90;;;;;;5015174;28;20046;-83
2022/01/07 09:25:29;;;;;;;31.85;17.77;;;4.70;99.90;;;;;;4983048;28;20050;-83
2022/01/07 09:27:54;;;;;;;32.85;18.48;;;4.70;99.90;;;;;;5000841;28;20067;-82
2022/01/07 09:30:20;;;;;;;34.10;18.40;;;4.80;99.90;;;;;;5002075;28;20054;-83
2022/01/07 09:32:46;;;;;;;30.50;17.85;;;4.90;99.90;;;;;;4994473;28;20034;-82
2022/01/07 09:35:11;;;;;;;33.47;20.10;;;4.90;99.90;;;;;;4992300;28;20027;-82
2022/01/07 09:37:37;;;;;;;40.42;23.45;;;4.90;99.90;;;;;;5001668;28;20040;-83
2022/01/07 09:40:04;;;;;;;33.97;18.83;;;4.90;99.90;;;;;;5000346;28;20034;-83
2022/01/07 09:42:30;;;;;;;30.83;17.95;;;4.90;99.90;;;;;;5002205;28;20035;-83
2022/01/07 09:44:56;;;;;;;33.70;19.55;;;5.00;99.90;;;;;;5001647;28;20069;-83
2022/01/07 09:47:22;;;;;;;38.03;19.05;;;4.90;99.90;;;;;;5000663;28;20035;-83
2022/01/07 09:49:48;;;;;;;34.83;18.48;;;5.00;99.90;;;;;;5000743;28;20384;-83
2022/01/07 09:52:14;;;;;;;29.85;18.30;;;5.00;99.90;;;;;;5000452;28;20044;-83
2022/01/07 09:54:40;;;;;;;33.75;18.75;;;5.00;99.90;;;;;;4969507;28;20097;-83
2022/01/07 09:57:07;;;;;;;31.00;18.80;;;5.00;99.90;;;;;;4999272;28;20058;-82
2022/01/07 09:59:34;;;;;;;37.83;19.45;;;4.90;99.90;;;;;;5000702;28;20041;-83
2022/01/07 10:02:06;;;;;;;33.10;18.13;;;5.00;99.90;;;;;;4999862;28;20041;-83
2022/01/07 10:04:38;;;;;;;19.98;11.40;;;4.90;99.90;;;;;;4994847;28;20023;-86
2022/01/07 10:07:24;;;;;;;17.45;7.57;;;4.80;99.90;;;;;;5012816;28;20031;-85
2022/01/07 10:09:58;;;;;;;13.05;7.13;;;4.70;99.90;;;;;;4997277;28;20136;-86
2022/01/07 10:12:25;;;;;;;13.27;6.78;;;4.70;99.90;;;;;;5014243;28;20120;-84
2022/01/07 10:15:10;;;;;;;14.77;6.68;;;4.70;99.90;;;;;;4996471;28;20229;-84
2022/01/07 10:17:35;;;;;;;13.60;7.65;;;4.70;99.90;;;;;;4996292;28;20026;-84
2022/01/07 10:20:01;;;;;;;16.67;8.35;;;4.70;99.90;;;;;;5004237;28;20045;-84
2022/01/07 10:22:27;;;;;;;14.18;7.30;;;4.70;99.90;;;;;;5013625;28;20077;-84
2022/01/07 10:25:02;;;;;;;14.50;7.45;;;4.70;99.90;;;;;;4999980;28;20096;-83
2022/01/07 10:27:35;;;;;;;14.02;6.82;;;4.60;99.90;;;;;;4996420;28;20166;-84
2022/01/07 10:30:09;;;;;;;16.77;8.68;;;4.70;99.90;;;;;;4998188;28;20033;-84
2022/01/07 10:32:34;;;;;;;15.88;8.38;;;4.60;99.90;;;;;;4996147;28;20057;-84
2022/01/07 10:35:04;;;;;;;18.40;9.80;;;4.60;99.90;;;;;;4993418;28;20022;-85
2022/01/07 10:37:33;;;;;;;16.40;10.00;;;4.60;99.90;;;;;;4999242;28;20041;-85
2022/01/07 10:39:59;;;;;;;20.50;10.50;;;4.60;99.90;;;;;;5013356;28;20030;-84
2022/01/07 10:42:26;;;;;;;16.98;9.95;;;4.60;99.90;;;;;;4999032;28;20050;-84
2022/01/07 10:44:58;;;;;;;17.38;8.82;;;4.70;99.90;;;;;;4994413;28;20117;-85
2022/01/07 10:47:24;;;;;;;14.05;8.05;;;4.70;99.90;;;;;;4999169;28;20045;-84
2022/01/07 10:49:50;;;;;;;14.77;7.90;;;4.80;99.90;;;;;;4992065;28;20038;-83
2022/01/07 10:52:24;;;;;;;14.73;7.32;;;4.80;99.90;;;;;;4986373;28;20172;-83
2022/01/07 10:55:13;;;;;;;15.95;7.05;;;4.90;99.90;;;;;;4993197;28;20062;-84
2022/01/07 10:57:45;;;;;;;11.57;4.75;;;4.90;99.90;;;;;;4989311;28;20065;-85
2022/01/07 11:00:14;;;;;;;11.82;5.55;;;5.00;99.90;;;;;;4992309;28;20038;-85
2022/01/07 11:02:40;;;;;;;15.15;6.10;;;5.00;99.90;;;;;;4993735;28;20066;-84
2022/01/07 11:05:07;;;;;;;15.50;6.65;;;5.10;99.90;;;;;;4988197;28;20027;-84
2022/01/07 11:07:33;;;;;;;17.08;8.02;;;5.00;99.90;;;;;;4995902;28;20034;-84
2022/01/07 11:09:59;;;;;;;17.10;9.20;;;5.10;99.90;;;;;;4972059;28;20026;-82
2022/01/07 11:12:27;;;;;;;23.52;12.82;;;5.20;99.90;;;;;;4997489;28;20053;-85
2022/01/07 11:14:54;;;;;;;18.45;9.68;;;5.40;99.90;;;;;;5001088;28;20018;-85
2022/01/07 11:17:23;;;;;;;19.83;10.30;;;5.60;99.90;;;;;;5012584;28;20044;-84
2022/01/07 11:19:59;;;;;;;21.67;10.35;;;5.60;99.90;;;;;;5019395;28;20025;-84
2022/01/07 11:22:26;;;;;;;21.55;11.40;;;5.70;99.90;;;;;;4995426;28;20656;-85
2022/01/07 11:25:06;;;;;;;25.23;14.07;;;5.60;99.90;;;;;;5026315;28;20021;-84
2022/01/07 11:27:54;;;;;;;23.15;12.70;;;5.60;99.90;;;;;;5010569;28;21033;-85
2022/01/07 11:30:25;;;;;;;23.85;13.40;;;5.50;99.90;;;;;;5015536;28;20073;-84
2022/01/07 11:32:52;;;;;;;24.27;12.45;;;5.50;99.90;;;;;;5022561;28;20556;-85
2022/01/07 11:35:21;;;;;;;24.73;13.02;;;5.40;99.90;;;;;;5014634;28;20031;-84
2022/01/07 11:37:51;;;;;;;21.58;12.68;;;5.30;99.90;;;;;;4994500;28;20616;-84
2022/01/07 11:40:29;;;;;;;28.38;13.07;;;5.30;99.90;;;;;;5014897;28;20062;-85
2022/01/07 11:42:56;;;;;;;26.17;13.57;;;5.30;99.90;;;;;;5003735;28;20048;-84
2022/01/07 11:45:37;;;;;;;25.55;12.93;;;5.30;99.90;;;;;;5021672;28;20387;-84
2022/01/07 11:48:09;;;;;;;23.00;12.45;;;5.30;99.90;;;;;;5022596;28;20041;-85
2022/01/07 11:50:56;;;;;;;23.50;10.93;;;5.30;99.90;;;;;;5023385;28;20388;-84
2022/01/07 11:53:23;;;;;;;21.17;11.13;;;5.30;99.90;;;;;;5021555;28;20077;-85
2022/01/07 11:55:49;;;;;;;20.60;10.30;;;5.30;99.90;;;;;;5022872;28;20037;-84
2022/01/07 11:58:16;;;;;;;18.05;7.90;;;5.30;99.90;;;;;;5005381;28;20034;-84
2022/01/07 12:00:59;;;;;;;12.48;6.63;;;5.30;99.90;;;;;;5004720;28;20109;-85
2022/01/07 12:03:45;;;;;;;18.27;7.13;;;5.30;99.90;;;;;;5022669;28;20033;-84
2022/01/07 12:06:17;;;;;;;9.63;3.45;;;5.20;99.90;;;;;;5019075;28;20037;-84
2022/01/07 12:08:58;;;;;;;12.68;4.80;;;5.30;99.90;;;;;;5019913;28;20064;-84
2022/01/07 12:11:29;;;;;;;12.00;3.80;;;5.30;99.90;;;;;;5022361;28;20081;-84
2022/01/07 12:13:55;;;;;;;9.23;2.58;;;5.30;99.90;;;;;;5022107;28;20140;-83
2022/01/07 12:16:27;;;;;;;8.27;2.60;;;5.30;99.90;;;;;;5023747;28;20029;-85
2022/01/07 12:19:26;;;;;;;8.68;2.53;;;5.30;99.90;;;;;;5004490;28;20021;-84
2022/01/07 12:21:57;;;;;;;8.93;2.60;;;5.10;99.90;;;;;;4997151;28;20057;-84
2022/01/07 12:24:27;;;;;;;11.90;2.97;;;5.00;99.90;;;;;;5024017;28;20084;-84
2022/01/07 12:27:05;;;;;;;12.77;4.60;;;4.90;99.90;;;;;;5017656;28;20030;-84
2022/01/07 12:29:32;;;;;;;11.23;3.42;;;4.80;99.90;;;;;;5012086;28;20121;-85
2022/01/07 12:31:58;;;;;;;8.00;2.05;;;4.80;99.90;;;;;;5018403;28;20034;-85
2022/01/07 12:34:25;;;;;;;9.30;2.15;;;4.80;99.90;;;;;;5020637;28;20022;-84
2022/01/07 12:36:55;;;;;;;6.55;1.40;;;4.90;99.90;;;;;;5020069;28;20021;-85
2022/01/07 12:39:26;;;;;;;11.02;2.25;;;5.00;99.90;;;;;;5022088;28;20112;-85
2022/01/07 12:41:53;;;;;;;8.00;1.75;;;5.20;99.90;;;;;;5003716;28;20030;-84
2022/01/07 12:44:19;;;;;;;7.10;1.70;;;5.20;99.90;;;;;;5020072;28;20030;-85
2022/01/07 12:46:54;;;;;;;12.90;4.25;;;5.10;99.90;;;;;;5022562;28;20018;-84
2022/01/07 12:49:20;;;;;;;8.30;2.60;;;5.00;99.90;;;;;;4997123;28;20028;-83
2022/01/07 12:52:06;;;;;;;7.70;1.92;;;4.80;99.90;;;;;;5013277;28;20046;-83
2022/01/07 12:54:33;;;;;;;8.05;1.77;;;4.70;99.90;;;;;;4995485;28;20116;-84
2022/01/07 12:56:58;;;;;;;8.35;2.10;;;4.70;99.90;;;;;;5018106;28;20100;-83
2022/01/07 12:59:26;;;;;;;7.28;2.60;;;5.70;99.90;;;;;;5014129;28;20474;-84